KBMG/BMG METAR and TAF weather

Enter ICAO airport designator
Station Type Date Time Source
KBMG METAR 2020/07/10 18:53 UTC NOAA

KBMG 101853Z 31010G19KT 10SM SCT040 BKN048 29/18 A2989 RMK AO2 SLP113 T02890178


Station Type Date Time Source
KBMG Decoded METAR 2020/07/10 18:53 UTC NOAA

MONROE COUNTY AIRPORT, IN, United States (KBMG) 39-09N 086-37W 257M
Jul 10, 2020 - 02:53 PM EDT / 2020.07.10 1853 UTC
Wind: from the NW (310 degrees) at 12 MPH (10 KT) gusting to 22 MPH (19 KT):0
Visibility: 10 mile(s):0
Sky conditions: mostly cloudy
Temperature: 84.0 F (28.9 C)
Dew Point: 64.0 F (17.8 C)
Relative Humidity: 51%
Pressure (altimeter): 29.89 in. Hg (1012 hPa)
ob: KBMG 101853Z 31010G19KT 10SM SCT040 BKN048 29/18 A2989 RMK AO2 SLP113 T02890178
cycle: 19

Station Type Date Time Source
KBMG TAF 2020/07/10 18:22 UTC NOAA

TAF KBMG 101720Z 1018/1118 29011G19KT P6SM BKN045
FM102100 30012G20KT P6SM SCT250
FM110000 30009KT P6SM FEW250

Example: see airport list